createdAt,value
2019-04-05T00:01:20.641Z,18.13
2019-04-05T00:03:49.086Z,17.33
2019-04-05T00:06:17.489Z,17.07
2019-04-05T00:08:45.941Z,15.90
2019-04-05T00:11:14.357Z,16.60
2019-04-05T00:13:42.826Z,16.13
2019-04-05T00:16:11.326Z,15.87
2019-04-05T00:18:39.744Z,16.10
2019-04-05T00:21:08.174Z,16.73
2019-04-05T00:23:36.581Z,16.77
2019-04-05T00:26:05.000Z,16.07
2019-04-05T00:28:33.460Z,16.67
2019-04-05T00:31:01.854Z,16.00
2019-04-05T00:33:30.259Z,17.20
2019-04-05T00:35:58.680Z,16.73
2019-04-05T00:38:27.085Z,17.43
2019-04-05T00:40:55.512Z,17.70
2019-04-05T00:43:24.201Z,17.30
2019-04-05T00:45:52.616Z,17.87
2019-04-05T00:48:21.029Z,17.05
2019-04-05T00:50:49.444Z,18.60
2019-04-05T00:53:17.854Z,17.53
2019-04-05T00:55:46.261Z,17.37
2019-04-05T00:58:14.988Z,18.43
2019-04-05T01:00:43.656Z,17.97
2019-04-05T01:03:13.325Z,17.67
2019-04-05T01:05:42.345Z,17.50
2019-04-05T01:08:10.767Z,18.50
2019-04-05T01:10:39.166Z,18.47
2019-04-05T01:13:07.602Z,18.73
2019-04-05T01:15:41.204Z,18.60
2019-04-05T01:18:06.223Z,18.63
2019-04-05T01:20:37.242Z,19.93
2019-04-05T01:23:05.654Z,19.60
2019-04-05T01:25:35.510Z,19.97
2019-04-05T01:28:03.985Z,19.10
2019-04-05T01:30:33.398Z,19.93
2019-04-05T01:33:02.052Z,19.50
2019-04-05T01:35:30.453Z,20.53
2019-04-05T01:37:59.339Z,21.40
2019-04-05T01:40:30.282Z,21.87
2019-04-05T01:42:58.962Z,19.90
2019-04-05T01:45:27.387Z,19.20
2019-04-05T01:47:55.858Z,17.37
2019-04-05T01:50:24.267Z,17.20
2019-04-05T01:52:53.225Z,17.23
2019-04-05T01:55:21.625Z,17.00
2019-04-05T01:57:50.022Z,16.80
2019-04-05T02:00:19.192Z,17.10
2019-04-05T02:02:47.731Z,18.00
2019-04-05T02:05:17.068Z,16.93
2019-04-05T02:07:45.652Z,17.43
2019-04-05T02:10:14.480Z,17.43
2019-04-05T02:12:42.884Z,18.23
2019-04-05T02:15:14.390Z,18.27
2019-04-05T02:17:42.804Z,18.07
2019-04-05T02:20:11.648Z,17.03
2019-04-05T02:22:40.073Z,17.80
2019-04-05T02:25:08.854Z,17.90
2019-04-05T02:27:37.257Z,18.50
2019-04-05T02:30:07.367Z,17.30
2019-04-05T02:32:35.847Z,17.37
2019-04-05T02:35:05.984Z,17.67
2019-04-05T02:37:34.408Z,18.93
2019-04-05T02:40:03.382Z,18.57
2019-04-05T02:42:33.026Z,16.67
2019-04-05T02:45:01.537Z,18.63
2019-04-05T02:47:30.307Z,18.00
2019-04-05T02:49:59.733Z,17.80
2019-04-05T02:52:30.154Z,17.87
2019-04-05T02:54:59.896Z,18.33
2019-04-05T02:57:29.064Z,19.03
2019-04-05T02:59:58.631Z,19.60
2019-04-05T03:02:27.870Z,19.30
2019-04-05T03:04:56.453Z,18.17
2019-04-05T03:07:26.873Z,19.40
2019-04-05T03:09:57.418Z,19.00
2019-04-05T03:12:26.177Z,19.10
2019-04-05T03:14:55.433Z,20.07
2019-04-05T03:17:24.684Z,18.70
2019-04-05T03:19:56.158Z,19.17
2019-04-05T03:22:25.898Z,19.80
2019-04-05T03:24:54.973Z,20.47
2019-04-05T03:27:26.606Z,20.70
2019-04-05T03:29:55.550Z,20.80
2019-04-05T03:32:25.029Z,19.10
2019-04-05T03:34:53.502Z,21.20
2019-04-05T03:37:22.234Z,19.97
2019-04-05T03:39:51.037Z,20.17
2019-04-05T03:42:20.086Z,20.73
2019-04-05T03:44:48.644Z,19.67
2019-04-05T03:47:17.512Z,20.27
2019-04-05T03:49:46.090Z,19.47
2019-04-05T03:52:14.965Z,21.02
2019-04-05T03:54:43.677Z,20.73
2019-04-05T03:57:12.255Z,21.20
2019-04-05T03:59:41.014Z,20.80
2019-04-05T04:02:09.591Z,20.20
2019-04-05T04:04:38.064Z,21.67
2019-04-05T04:07:06.662Z,20.97
2019-04-05T04:09:35.064Z,21.77
2019-04-05T04:12:03.477Z,22.23
2019-04-05T04:14:31.976Z,20.83
2019-04-05T04:17:11.928Z,21.90
2019-04-05T04:19:30.987Z,21.73
2019-04-05T04:22:05.481Z,21.53
2019-04-05T04:24:34.117Z,20.93
2019-04-05T04:27:02.666Z,19.83
2019-04-05T04:29:31.162Z,20.00
2019-04-05T04:31:59.730Z,19.93
2019-04-05T04:34:28.400Z,19.87
2019-04-05T04:36:57.011Z,20.97
2019-04-05T04:39:25.694Z,20.97
2019-04-05T04:41:54.106Z,20.73
2019-04-05T04:44:22.777Z,20.70
2019-04-05T04:46:51.255Z,22.80
2019-04-05T04:49:20.027Z,23.13
2019-04-05T04:51:49.082Z,22.70
2019-04-05T04:54:17.760Z,22.35
2019-04-05T04:56:46.193Z,23.40
2019-04-05T04:59:14.675Z,22.13
2019-04-05T05:01:43.098Z,22.47
2019-04-05T05:04:11.752Z,22.17
2019-04-05T05:06:40.344Z,21.37
2019-04-05T05:09:08.818Z,22.20
2019-04-05T05:11:37.856Z,22.77
2019-04-05T05:14:06.720Z,21.83
2019-04-05T05:16:35.287Z,20.90
2019-04-05T05:19:04.172Z,20.97
2019-04-05T05:21:32.813Z,20.93
2019-04-05T05:24:01.213Z,20.47
2019-04-05T05:26:30.285Z,21.27
2019-04-05T05:28:59.318Z,20.80
2019-04-05T05:31:27.967Z,20.97
2019-04-05T05:33:56.389Z,19.33
2019-04-05T05:36:24.867Z,21.23
2019-04-05T05:38:53.276Z,20.13
2019-04-05T05:41:21.738Z,20.07
2019-04-05T05:43:50.137Z,19.80
2019-04-05T05:46:18.565Z,18.87
2019-04-05T05:48:46.992Z,19.20
2019-04-05T05:51:15.388Z,20.40
2019-04-05T05:53:44.167Z,20.57
2019-04-05T05:56:12.597Z,18.83
2019-04-05T05:58:41.034Z,20.43
2019-04-05T06:01:09.433Z,20.23
2019-04-05T06:03:37.928Z,21.37
2019-04-05T06:06:06.334Z,18.33
2019-04-05T06:08:34.766Z,20.57
2019-04-05T06:11:03.323Z,20.53
2019-04-05T06:13:31.717Z,19.67
2019-04-05T06:16:00.160Z,19.63
2019-04-05T06:18:28.550Z,19.97
2019-04-05T06:20:56.951Z,20.77
2019-04-05T06:23:33.621Z,20.27
2019-04-05T06:25:55.518Z,20.50
2019-04-05T06:28:23.909Z,19.63
2019-04-05T06:30:52.348Z,18.90
2019-04-05T06:33:30.891Z,19.60
2019-04-05T06:35:50.943Z,18.33
2019-04-05T06:38:19.379Z,19.13
2019-04-05T06:40:47.798Z,18.17
2019-04-05T06:43:16.185Z,18.63
2019-04-05T06:45:44.652Z,17.43
2019-04-05T06:48:19.572Z,18.20
2019-04-05T06:50:43.240Z,18.37
2019-04-05T06:53:11.702Z,19.43
2019-04-05T06:55:40.089Z,18.17
2019-04-05T06:58:10.347Z,19.03
2019-04-05T07:00:38.789Z,18.50
2019-04-05T07:03:07.319Z,19.33
2019-04-05T07:05:35.754Z,19.87
2019-04-05T07:08:04.241Z,20.10
2019-04-05T07:10:32.625Z,19.53
2019-04-05T07:13:01.268Z,19.97
2019-04-05T07:15:29.981Z,21.00
2019-04-05T07:17:58.372Z,20.27
2019-04-05T07:20:26.826Z,20.87
2019-04-05T07:22:55.309Z,19.30
2019-04-05T07:25:23.712Z,21.50
2019-04-05T07:27:52.130Z,20.20
2019-04-05T07:30:20.773Z,21.30
2019-04-05T07:32:49.166Z,20.57
2019-04-05T07:35:17.604Z,20.20
2019-04-05T07:37:46.000Z,23.33
2019-04-05T07:40:14.839Z,21.52
2019-04-05T07:42:43.269Z,22.27
2019-04-05T07:45:12.512Z,22.50
2019-04-05T07:47:40.900Z,21.63
2019-04-05T07:50:09.888Z,22.37
2019-04-05T07:52:38.284Z,21.33
2019-04-05T07:55:07.722Z,23.17
2019-04-05T07:57:36.137Z,23.20
2019-04-05T08:00:09.923Z,21.47
2019-04-05T08:02:38.318Z,22.73
2019-04-05T08:05:07.688Z,22.23
2019-04-05T08:07:39.166Z,21.03
2019-04-05T08:10:08.547Z,20.80
2019-04-05T08:12:37.589Z,20.47
2019-04-05T08:15:06.543Z,20.00
2019-04-05T08:17:34.943Z,20.13
2019-04-05T08:20:04.361Z,19.93
2019-04-05T08:22:32.808Z,18.67
2019-04-05T08:25:01.200Z,17.60
2019-04-05T08:27:29.643Z,18.23
2019-04-05T08:29:58.076Z,17.70
2019-04-05T08:32:26.476Z,17.77
2019-04-05T08:34:54.877Z,18.30
2019-04-05T08:37:23.579Z,18.10
2019-04-05T08:39:51.986Z,19.07
2019-04-05T08:42:20.402Z,16.17
2019-04-05T08:44:48.955Z,16.50
2019-04-05T08:47:17.380Z,17.87
2019-04-05T08:49:45.784Z,14.43
2019-04-05T08:52:14.216Z,13.50
2019-04-05T08:54:42.627Z,13.93
2019-04-05T08:57:11.030Z,14.23
2019-04-05T08:59:39.453Z,15.40
2019-04-05T09:02:07.852Z,14.90
2019-04-05T09:04:36.249Z,15.37
2019-04-05T09:07:05.170Z,14.90
2019-04-05T09:09:33.634Z,15.27
2019-04-05T09:12:02.020Z,15.13
2019-04-05T09:14:30.456Z,15.57
2019-04-05T09:16:58.878Z,14.57
2019-04-05T09:19:27.276Z,14.50
2019-04-05T09:21:55.708Z,15.87
2019-04-05T09:24:24.125Z,16.10
2019-04-05T09:26:54.315Z,15.37
2019-04-05T09:29:22.681Z,15.87
2019-04-05T09:31:51.100Z,14.80
2019-04-05T09:34:19.536Z,15.00
2019-04-05T09:36:47.964Z,14.17
2019-04-05T09:39:16.388Z,12.80
2019-04-05T09:41:44.892Z,13.13
2019-04-05T09:44:13.301Z,13.80
2019-04-05T09:46:47.939Z,14.20
2019-04-05T09:49:11.998Z,14.37
2019-04-05T09:51:40.419Z,14.30
2019-04-05T09:54:08.843Z,13.87
2019-04-05T09:56:37.243Z,14.27
2019-04-05T09:59:05.749Z,14.40
2019-04-05T10:01:34.167Z,13.70
2019-04-05T10:04:02.557Z,12.63
2019-04-05T10:06:30.984Z,13.23
2019-04-05T10:08:59.469Z,13.73
2019-04-05T10:11:27.925Z,11.90
2019-04-05T10:13:56.352Z,11.93
2019-04-05T10:16:24.791Z,11.73
2019-04-05T10:18:53.398Z,12.07
2019-04-05T10:21:21.804Z,11.73
2019-04-05T10:23:50.196Z,11.73
2019-04-05T10:26:18.625Z,11.97
2019-04-05T10:28:47.029Z,13.43
2019-04-05T10:31:15.448Z,11.37
2019-04-05T10:33:43.881Z,12.07
2019-04-05T10:36:12.285Z,11.33
2019-04-05T10:38:40.679Z,11.23
2019-04-05T10:41:09.128Z,11.43
2019-04-05T10:43:37.590Z,11.50
2019-04-05T10:46:05.999Z,11.37
2019-04-05T10:48:35.552Z,11.60
2019-04-05T10:51:04.108Z,11.43
2019-04-05T10:53:32.515Z,12.67
2019-04-05T10:56:00.942Z,12.13
2019-04-05T10:58:29.342Z,12.80
2019-04-05T11:00:57.732Z,12.60
2019-04-05T11:03:26.162Z,12.23
2019-04-05T11:05:54.560Z,12.10
2019-04-05T11:08:22.957Z,12.43
2019-04-05T11:10:51.395Z,12.40
2019-04-05T11:13:19.825Z,12.97
2019-04-05T11:15:48.482Z,12.23
2019-04-05T11:18:16.912Z,12.60
2019-04-05T11:20:48.808Z,12.27
2019-04-05T11:23:15.489Z,12.40
2019-04-05T11:25:43.900Z,11.97
2019-04-05T11:28:12.332Z,11.77
2019-04-05T11:30:43.391Z,12.07
2019-04-05T11:33:12.039Z,11.50
2019-04-05T11:35:40.528Z,11.97
2019-04-05T11:38:09.006Z,12.00
2019-04-05T11:40:38.614Z,11.10
2019-04-05T11:43:07.038Z,12.33
2019-04-05T11:45:35.780Z,11.23
2019-04-05T11:48:05.528Z,12.13
2019-04-05T11:50:35.043Z,12.40
2019-04-05T11:53:03.791Z,11.80
2019-04-05T11:55:32.204Z,11.97
2019-04-05T11:58:00.641Z,11.67
2019-04-05T12:00:42.857Z,12.53
2019-04-05T12:03:15.873Z,11.60
2019-04-05T12:05:44.284Z,10.87
2019-04-05T12:08:12.851Z,12.83
2019-04-05T12:10:41.253Z,11.17
2019-04-05T12:13:09.648Z,11.60
2019-04-05T12:15:38.357Z,10.97
2019-04-05T12:18:06.782Z,12.57
2019-04-05T12:20:48.065Z,11.57
2019-04-05T12:23:05.335Z,11.57
2019-04-05T12:25:34.513Z,11.23
2019-04-05T12:28:07.521Z,11.23
2019-04-05T12:30:33.078Z,10.80
2019-04-05T12:33:13.024Z,11.53
2019-04-05T12:35:31.609Z,11.03
2019-04-05T12:38:00.045Z,11.30
2019-04-05T12:40:28.440Z,12.13
2019-04-05T12:42:56.849Z,11.63
2019-04-05T12:45:25.271Z,12.30
2019-04-05T12:47:53.736Z,12.03
2019-04-05T12:50:22.171Z,11.23
2019-04-05T12:52:50.572Z,11.63
2019-04-05T12:55:18.967Z,11.30
2019-04-05T12:57:48.557Z,11.00
2019-04-05T13:00:18.834Z,12.53
2019-04-05T13:02:49.786Z,11.47
2019-04-05T13:05:20.409Z,11.33
2019-04-05T13:07:47.941Z,13.20
2019-04-05T13:10:16.542Z,10.43
2019-04-05T13:12:46.472Z,11.23
2019-04-05T13:15:17.121Z,10.40
2019-04-05T13:17:45.279Z,10.30
2019-04-05T13:20:13.848Z,11.18
2019-04-05T13:22:42.260Z,11.27
2019-04-05T13:25:11.526Z,11.17
2019-04-05T13:27:41.513Z,11.20
2019-04-05T13:30:10.681Z,11.63
2019-04-05T13:32:39.123Z,11.03
2019-04-05T13:35:07.866Z,11.10
2019-04-05T13:37:36.279Z,12.43
2019-04-05T13:40:06.799Z,11.70
2019-04-05T13:42:35.581Z,12.60
2019-04-05T13:45:07.231Z,12.90
2019-04-05T13:47:38.927Z,13.13
2019-04-05T13:50:10.886Z,12.37
2019-04-05T13:52:39.231Z,12.77
2019-04-05T13:55:10.457Z,13.03
2019-04-05T13:57:38.441Z,13.10
2019-04-05T14:00:09.609Z,13.15
2019-04-05T14:02:38.063Z,13.87
2019-04-05T14:05:07.115Z,13.40
2019-04-05T14:07:35.509Z,13.13
2019-04-05T14:10:10.475Z,13.23
2019-04-05T14:12:37.702Z,13.63
2019-04-05T14:15:10.708Z,12.60
2019-04-05T14:17:37.793Z,12.27
2019-04-05T14:20:08.943Z,12.70
2019-04-05T14:22:36.844Z,12.37
2019-04-05T14:25:07.785Z,12.30
2019-04-05T14:27:36.266Z,12.30
2019-04-05T14:30:06.922Z,12.20
2019-04-05T14:32:35.390Z,11.83
2019-04-05T14:35:07.778Z,11.30
2019-04-05T14:37:35.632Z,12.33
2019-04-05T14:40:09.554Z,11.50
2019-04-05T14:42:38.358Z,10.63
2019-04-05T14:45:08.029Z,11.77
2019-04-05T14:47:36.424Z,11.90
2019-04-05T14:50:07.151Z,10.97
2019-04-05T14:52:35.818Z,11.43
2019-04-05T14:55:05.627Z,12.00
2019-04-05T14:57:35.610Z,11.47
2019-04-05T15:00:07.193Z,11.93
2019-04-05T15:02:35.597Z,11.90
2019-04-05T15:05:06.468Z,12.03
2019-04-05T15:07:37.587Z,12.07
2019-04-05T15:10:05.852Z,12.27
2019-04-05T15:12:34.279Z,11.27
2019-04-05T15:15:02.709Z,12.17
2019-04-05T15:17:31.113Z,12.57
2019-04-05T15:19:59.595Z,11.90
2019-04-05T15:22:28.010Z,12.57
2019-04-05T15:24:56.413Z,12.33
2019-04-05T15:27:24.856Z,12.60
2019-04-05T15:29:55.477Z,11.93
2019-04-05T15:32:25.425Z,11.70
2019-04-05T15:34:53.720Z,12.93
2019-04-05T15:37:22.116Z,12.57
2019-04-05T15:39:50.509Z,12.70
2019-04-05T15:42:18.961Z,13.53
2019-04-05T15:44:47.366Z,12.43
2019-04-05T15:47:15.771Z,13.17
2019-04-05T15:49:44.203Z,12.17
2019-04-05T15:52:18.516Z,12.17
2019-04-05T15:54:43.276Z,12.17
2019-04-05T15:57:11.828Z,13.27
2019-04-05T15:59:40.365Z,12.10
2019-04-05T16:02:08.763Z,12.57
2019-04-05T16:04:37.196Z,12.33
2019-04-05T16:07:05.603Z,12.70
2019-04-05T16:09:34.068Z,12.93
2019-04-05T16:12:02.497Z,12.63
2019-04-05T16:14:31.169Z,12.73
2019-04-05T16:16:59.572Z,12.63
2019-04-05T16:19:27.977Z,13.10
2019-04-05T16:21:56.415Z,14.50
2019-04-05T16:24:24.820Z,12.77
2019-04-05T16:26:53.236Z,13.60
2019-04-05T16:29:21.703Z,13.77
2019-04-05T16:31:50.196Z,13.03
2019-04-05T16:34:18.593Z,12.90
2019-04-05T16:36:47.036Z,11.97
2019-04-05T16:39:17.132Z,12.87
2019-04-05T16:41:45.540Z,12.40
2019-04-05T16:44:14.148Z,13.20
2019-04-05T16:46:42.551Z,12.97
2019-04-05T16:49:10.993Z,14.57
2019-04-05T16:51:39.421Z,13.13
2019-04-05T16:54:07.833Z,13.23
2019-04-05T16:56:36.224Z,13.70
2019-04-05T16:59:04.938Z,13.30
2019-04-05T17:01:33.340Z,14.00
2019-04-05T17:04:01.925Z,13.73
2019-04-05T17:06:30.356Z,13.47
2019-04-05T17:08:58.757Z,13.30
2019-04-05T17:11:27.188Z,14.13
2019-04-05T17:13:59.431Z,14.00
2019-04-05T17:16:25.755Z,13.90
2019-04-05T17:18:54.151Z,14.23
2019-04-05T17:21:22.586Z,14.80
2019-04-05T17:23:50.989Z,14.93
2019-04-05T17:26:19.387Z,14.83
2019-04-05T17:28:47.825Z,14.80
2019-04-05T17:31:16.226Z,14.63
2019-04-05T17:33:44.634Z,14.13
2019-04-05T17:36:13.080Z,14.00
2019-04-05T17:38:41.485Z,15.67
2019-04-05T17:41:09.885Z,14.67
2019-04-05T17:43:38.314Z,14.73
2019-04-05T17:46:07.703Z,16.07
2019-04-05T17:48:36.104Z,15.07
2019-04-05T17:51:04.621Z,16.57
2019-04-05T17:53:33.088Z,16.30
2019-04-05T17:56:01.708Z,17.23
2019-04-05T17:58:32.419Z,15.93
2019-04-05T18:01:01.076Z,16.53
2019-04-05T18:03:29.480Z,16.00
2019-04-05T18:05:57.953Z,16.27
2019-04-05T18:08:26.345Z,15.23
2019-04-05T18:10:55.014Z,16.33
2019-04-05T18:13:23.446Z,15.60
2019-04-05T18:15:53.094Z,16.27
2019-04-05T18:18:21.759Z,17.13
2019-04-05T18:20:50.163Z,16.77
2019-04-05T18:23:24.866Z,18.73
2019-04-05T18:25:48.719Z,18.20
2019-04-05T18:28:17.132Z,18.73
2019-04-05T18:30:46.094Z,18.57
2019-04-05T18:33:14.537Z,18.30
2019-04-05T18:35:42.950Z,17.50
2019-04-05T18:38:11.342Z,19.30
2019-04-05T18:40:40.531Z,20.43
2019-04-05T18:43:09.108Z,20.23
2019-04-05T18:45:37.753Z,19.00
2019-04-05T18:48:06.419Z,18.70
2019-04-05T18:50:34.807Z,18.17
2019-04-05T18:53:03.291Z,19.03
2019-04-05T18:55:32.025Z,19.67
2019-04-05T18:58:00.501Z,19.40
2019-04-05T19:00:29.090Z,18.63
2019-04-05T19:02:57.873Z,19.43
2019-04-05T19:05:26.268Z,19.03
2019-04-05T19:07:54.680Z,19.03
2019-04-05T19:10:36.222Z,19.70
2019-04-05T19:12:53.495Z,18.77
2019-04-05T19:15:22.065Z,19.00
2019-04-05T19:17:50.488Z,18.97
2019-04-05T19:20:18.957Z,19.00
2019-04-05T19:22:47.376Z,19.33
2019-04-05T19:25:15.846Z,18.97
2019-04-05T19:27:44.281Z,18.63
2019-04-05T19:50:15.495Z,17.93
2019-04-05T19:52:43.895Z,18.87
2019-04-05T19:55:12.292Z,19.13
2019-04-05T19:57:40.728Z,18.10
2019-04-05T20:00:09.368Z,19.40
2019-04-05T20:02:37.858Z,18.13
2019-04-05T20:05:07.900Z,18.20
2019-04-05T20:07:39.370Z,20.13
2019-04-05T20:10:08.104Z,19.70
2019-04-05T20:12:36.538Z,19.40
2019-04-05T20:15:06.980Z,19.10
2019-04-05T20:17:35.425Z,19.33
2019-04-05T20:20:06.200Z,19.33
2019-04-05T20:22:34.596Z,19.87
2019-04-05T20:25:04.249Z,18.97
2019-04-05T20:27:32.677Z,19.80
2019-04-05T20:30:01.092Z,19.90
2019-04-05T20:32:29.486Z,19.67
2019-04-05T20:34:57.920Z,21.10
2019-04-05T20:37:26.319Z,19.57
2019-04-05T20:39:54.726Z,19.83
2019-04-05T20:42:23.156Z,19.05
2019-04-05T20:44:51.538Z,20.13
2019-04-05T20:47:19.940Z,20.37
2019-04-05T20:49:48.368Z,19.43
2019-04-05T20:52:16.778Z,18.70
2019-04-05T20:54:45.188Z,19.27
2019-04-05T20:57:13.633Z,19.17
2019-04-05T20:59:42.045Z,19.97
2019-04-05T21:02:10.444Z,18.17
2019-04-05T21:04:38.875Z,19.60
2019-04-05T21:07:07.301Z,18.73
2019-04-05T21:09:35.732Z,20.60
2019-04-05T21:12:04.204Z,19.80
2019-04-05T21:14:32.605Z,20.73
2019-04-05T21:17:01.004Z,20.30
2019-04-05T21:19:29.448Z,20.40
2019-04-05T21:21:57.883Z,20.47
2019-04-05T21:24:35.715Z,20.70
2019-04-05T21:26:56.459Z,21.10
2019-04-05T21:29:24.864Z,20.27
2019-04-05T21:31:53.266Z,19.57
2019-04-05T21:34:21.685Z,21.47
2019-04-05T21:36:50.087Z,20.67
2019-04-05T21:39:18.486Z,21.10
2019-04-05T21:41:46.904Z,21.73
2019-04-05T21:44:15.298Z,21.12
2019-04-05T21:46:43.741Z,21.80
2019-04-05T21:49:12.132Z,20.80
2019-04-05T21:51:40.527Z,23.40
2019-04-05T21:54:09.092Z,21.57
2019-04-05T21:56:37.500Z,21.43
2019-04-05T21:59:05.897Z,21.50
2019-04-05T22:01:34.487Z,21.37
2019-04-05T22:04:03.404Z,21.77
2019-04-05T22:06:33.003Z,21.43
2019-04-05T22:09:01.421Z,22.60
2019-04-05T22:11:29.827Z,22.43
2019-04-05T22:13:58.224Z,21.57
2019-04-05T22:16:26.938Z,21.60
2019-04-05T22:18:55.332Z,21.83
2019-04-05T22:21:23.784Z,21.10
2019-04-05T22:23:52.385Z,21.23
2019-04-05T22:26:20.782Z,21.60
2019-04-05T22:28:49.224Z,22.17
2019-04-05T22:31:17.919Z,22.40
2019-04-05T22:33:46.317Z,21.30
2019-04-05T22:36:14.713Z,21.53
2019-04-05T22:38:43.124Z,21.60
2019-04-05T22:41:11.540Z,21.73
2019-04-05T22:43:39.936Z,23.53
2019-04-05T22:46:08.353Z,21.97
2019-04-05T22:48:36.755Z,22.53
2019-04-05T22:51:05.178Z,21.73
2019-04-05T22:53:33.602Z,22.53
2019-04-05T22:56:02.027Z,21.37
2019-04-05T22:58:30.425Z,22.03
2019-04-05T23:00:58.879Z,22.03
2019-04-05T23:03:27.311Z,21.87
2019-04-05T23:05:55.708Z,21.57
2019-04-05T23:08:24.093Z,22.13
2019-04-05T23:10:52.516Z,20.67
2019-04-05T23:13:20.914Z,20.93
2019-04-05T23:15:49.316Z,22.37
2019-04-05T23:18:17.738Z,21.50
2019-04-05T23:20:46.137Z,20.30
2019-04-05T23:23:14.535Z,20.53
2019-04-05T23:25:43.118Z,20.33
2019-04-05T23:28:11.494Z,20.00
2019-04-05T23:30:39.892Z,20.47
2019-04-05T23:33:08.317Z,20.30
2019-04-05T23:35:36.707Z,19.73
2019-04-05T23:38:05.159Z,21.33
2019-04-05T23:40:33.579Z,20.47
2019-04-05T23:43:02.056Z,20.70
2019-04-05T23:45:30.476Z,21.80
2019-04-05T23:47:58.906Z,21.87
2019-04-05T23:50:27.300Z,21.57
2019-04-05T23:52:55.707Z,21.47
2019-04-05T23:55:32.789Z,22.27
2019-04-05T23:57:54.257Z,22.13
